Terminal Aerodrome Forecast
Issued by NWS

Home | Current Version | Previous Version | Text Only | Print | Product List | Glossary On
Versions: 1 2 3 4 5 6 7 8 9 10 11 12 13 14 15 16 17
000
FTUS45 KTFX 251000 AAA
TAFBZN
TAF AMD
KBZN 251001Z 2510/2606 36007KT P6SM SCT030 OVC045
     FM251200 02011KT 5SM -SN BR SCT010 OVC020
     FM251800 VRB06KT P6SM VCSH SCT020 BKN035
     FM260000 VRB05KT P6SM SCT040=

USA.gov is the U.S. government's official web portal to all federal, state and local government web resources and services.